Terminal Aerodrome Forecast
Issued by NWS

Home | Current Version | Previous Version | Text Only | Print | Product List | Glossary On
Versions: 1 2 3 4 5 6 7 8 9 10 11 12 13 14 15 16 17 18 19 20 21 22 23 24 25 26 27 28 29 30 31 32 33 34 35
000
FTUS43 KIND 191126
TAFLAF
TAF
KLAF 191126Z 1912/2012 00000KT P6SM BKN100
     FM191800 00000KT P6SM VCSH SCT070
     FM192100 00000KT 6SM SHRA BR VCTS OVC070CB
     FM200500 00000KT 5SM SHRA BR VCTS OVC009CB
     FM200700 VRB03KT 5SM SHRA BR OVC006
     AMD LTD TO CLD VIS AND WIND TIL 191300=

USA.gov is the U.S. government's official web portal to all federal, state and local government web resources and services.